Time;durP1;ratioP1;P1;durP2;ratioP2;P2;SDS_P1;SDS_P2;PMS_P1;PMS_P2;Temp;Humidity;BMP_temperature;BMP_pressure;BME280_temperature;BME280_humidity;BME280_pressure;Samples;Min_cycle;Max_cycle;Signal;HPM_P1;HPM_P2
2022/07/17 00:00:22;;;;;;;5.20;1.33;;;12.60;1.40;;;13.78;100.00;96206.98;649689;216;31686;-76
2022/07/17 00:03:04;;;;;;;1.33;0.83;;;12.40;1.40;;;13.48;100.00;96208.66;648150;212;32368;-75
2022/07/17 00:05:45;;;;;;;1.87;1.42;;;12.00;1.40;;;13.43;100.00;96211.97;648564;216;31828;-75
2022/07/17 00:08:27;;;;;;;3.05;1.80;;;11.90;1.40;;;13.36;100.00;96215.63;646016;216;42708;-74
2022/07/17 00:11:09;;;;;;;1.37;1.10;;;11.90;1.40;;;13.22;100.00;96209.59;646689;216;42592;-75
2022/07/17 00:13:53;;;;;;;2.00;1.48;;;11.80;1.40;;;13.22;100.00;96208.94;652859;216;31593;-76
2022/07/17 00:16:35;;;;;;;1.65;1.10;;;12.00;1.40;;;13.23;100.00;96210.17;623725;226;31956;-75
2022/07/17 00:19:17;;;;;;;2.80;1.10;;;12.00;1.40;;;13.31;100.00;96210.89;622283;226;42612;-75
2022/07/17 00:22:05;;;;;;;1.90;1.30;;;12.00;1.40;;;13.49;100.00;96207.86;646406;216;42132;-77
2022/07/17 00:24:49;;;;;;;2.70;1.10;;;12.20;1.40;;;13.45;100.00;96207.02;646910;212;42721;-75
2022/07/17 00:27:30;;;;;;;0.90;0.90;;;12.10;1.40;;;13.49;100.00;96209.19;647958;212;31840;-75
2022/07/17 00:30:12;;;;;;;1.70;1.60;;;12.00;1.40;;;13.23;100.00;96207.56;646268;212;31553;-75
2022/07/17 00:32:54;;;;;;;1.50;1.02;;;11.80;1.40;;;13.06;100.00;96202.66;648692;216;31541;-74
2022/07/17 00:35:51;;;;;;;1.75;1.52;;;11.50;1.40;;;12.87;100.00;96201.03;649412;212;32319;-75
2022/07/17 00:38:32;;;;;;;0.80;0.80;;;11.40;1.40;;;12.81;100.00;96201.88;644297;216;31551;-75
2022/07/17 00:41:15;;;;;;;1.65;1.55;;;11.30;1.40;;;12.64;100.00;96212.92;646278;216;39343;-75
2022/07/17 00:43:57;;;;;;;2.05;1.05;;;11.30;1.40;;;12.73;100.00;96210.34;620272;226;31943;-76
2022/07/17 00:46:38;;;;;;;1.05;0.95;;;11.30;1.40;;;12.69;100.00;96212.16;620096;226;32536;-75
2022/07/17 00:49:20;;;;;;;2.97;0.90;;;11.30;1.40;;;12.54;100.00;96209.89;653889;216;31524;-76
2022/07/17 00:52:02;;;;;;;1.20;1.10;;;11.20;1.40;;;12.58;100.00;96204.05;646840;216;39895;-76
2022/07/17 00:54:49;;;;;;;1.00;0.90;;;11.30;1.40;;;12.65;100.00;96207.50;640056;212;42376;-77
2022/07/17 00:57:33;;;;;;;1.17;1.00;;;11.30;1.40;;;12.66;100.00;96198.17;646381;212;31501;-76
2022/07/17 01:00:21;;;;;;;1.40;1.27;;;11.30;1.40;;;12.78;100.00;96200.84;644078;217;31514;-77
2022/07/17 01:03:09;;;;;;;2.33;1.37;;;11.50;1.40;;;12.80;100.00;96204.73;646607;212;31532;-75
2022/07/17 01:05:50;;;;;;;2.20;2.00;;;11.40;1.40;;;12.83;100.00;96201.16;650261;216;34603;-75
2022/07/17 01:08:32;;;;;;;2.05;1.37;;;11.40;1.40;;;12.67;100.00;96203.00;646194;212;31620;-75
2022/07/17 01:11:20;;;;;;;1.10;1.10;;;11.20;1.40;;;12.64;100.00;96203.13;648683;216;33108;-77
2022/07/17 01:14:07;;;;;;;1.50;1.40;;;11.10;1.40;;;12.55;100.00;96201.94;651468;216;33425;-75
2022/07/17 01:16:49;;;;;;;0.95;0.93;;;11.10;1.40;;;12.49;100.00;96195.45;649318;216;31678;-76
2022/07/17 01:19:37;;;;;;;1.23;1.13;;;11.10;1.40;;;12.40;100.00;96200.15;645843;212;31617;-77
2022/07/17 01:22:25;;;;;;;1.02;0.90;;;11.00;1.40;;;12.35;100.00;96200.28;651031;216;42201;-77
2022/07/17 01:25:07;;;;;;;1.55;1.10;;;10.90;1.40;;;12.26;100.00;96199.80;645709;216;31483;-76
2022/07/17 01:27:49;;;;;;;2.03;1.50;;;10.80;1.40;;;12.30;100.00;96200.97;643931;212;38430;-75
2022/07/17 01:30:31;;;;;;;1.00;0.80;;;11.00;1.40;;;12.29;100.00;96200.00;648576;216;35997;-75
2022/07/17 01:35:51;;;;;;;4.07;1.30;;;10.90;1.40;;;12.18;100.00;96200.43;617051;226;32073;-75
2022/07/17 01:38:33;;;;;;;1.55;1.45;;;10.80;1.40;;;12.15;100.00;96200.31;643917;216;31501;-75
2022/07/17 01:41:15;;;;;;;3.00;1.97;;;10.70;1.40;;;12.08;100.00;96197.89;647483;216;33520;-75
2022/07/17 01:43:57;;;;;;;0.90;0.90;;;10.70;1.40;;;12.06;100.00;96202.21;649895;216;31629;-75
2022/07/17 01:46:38;;;;;;;1.90;1.20;;;10.70;1.40;;;11.96;100.00;96201.76;644388;216;34060;-75
2022/07/17 01:49:20;;;;;;;1.35;1.25;;;10.60;1.40;;;11.96;100.00;96206.72;648984;216;31565;-75
2022/07/17 01:52:02;;;;;;;1.40;1.20;;;10.60;1.40;;;11.94;100.00;96205.12;644065;216;31675;-75
2022/07/17 01:54:43;;;;;;;1.40;1.30;;;10.60;1.40;;;11.90;100.00;96200.91;647207;212;32072;-75
2022/07/17 01:57:25;;;;;;;1.50;1.10;;;10.60;1.40;;;11.89;100.00;96202.27;655027;216;32012;-75
2022/07/17 02:00:10;;;;;;;1.58;1.48;;;10.60;1.40;;;11.92;100.00;96200.30;645023;212;31580;-76
2022/07/17 02:02:52;;;;;;;1.67;1.58;;;10.70;1.40;;;11.93;100.00;96198.88;646135;212;31664;-76
2022/07/17 02:05:41;;;;;;;1.45;0.90;;;10.60;1.40;;;11.87;100.00;96197.80;647501;216;31519;-75
2022/07/17 02:08:23;;;;;;;1.62;1.52;;;10.60;1.40;;;11.88;100.00;96196.27;646963;216;31549;-75
2022/07/17 02:11:04;;;;;;;1.80;1.40;;;10.60;1.40;;;11.93;100.00;96197.14;646819;216;31514;-75
2022/07/17 02:13:46;;;;;;;1.87;1.33;;;10.70;1.40;;;11.97;100.00;96194.91;644218;216;32214;-76
2022/07/17 02:16:28;;;;;;;1.40;1.30;;;10.80;1.40;;;11.92;100.00;96188.30;646307;212;32565;-74
2022/07/17 02:19:17;;;;;;;3.30;1.42;;;10.70;1.40;;;11.83;100.00;96187.25;648947;216;31566;-77
2022/07/17 02:22:00;;;;;;;2.10;1.30;;;10.50;1.40;;;11.84;100.00;96190.94;621608;226;32384;-75
2022/07/17 02:24:42;;;;;;;1.70;1.40;;;10.50;1.40;;;11.74;100.00;96196.66;646418;216;32114;-75
2022/07/17 02:27:24;;;;;;;1.40;1.10;;;10.40;1.40;;;11.69;100.00;96192.41;644203;216;40017;-75
2022/07/17 02:30:07;;;;;;;1.07;1.00;;;10.30;1.40;;;11.66;100.00;96192.45;651164;216;32034;-75
2022/07/17 02:32:49;;;;;;;1.20;1.08;;;10.30;1.40;;;11.66;100.00;96190.81;646214;216;31518;-75
2022/07/17 02:35:52;;;;;;;3.90;1.10;;;10.40;1.40;;;11.67;100.00;96195.80;648487;216;31816;-75
2022/07/17 02:38:33;;;;;;;1.90;1.40;;;10.40;1.40;;;11.65;100.00;96194.25;653678;216;31538;-75
2022/07/17 02:41:18;;;;;;;5.90;1.40;;;10.40;1.40;;;11.58;100.00;96190.48;647313;216;31897;-75
2022/07/17 02:44:00;;;;;;;1.87;1.60;;;10.30;1.40;;;11.50;100.00;96189.70;647134;216;31828;-75
2022/07/17 02:46:41;;;;;;;2.60;1.20;;;10.30;1.40;;;11.48;100.00;96185.98;650841;212;31625;-75
2022/07/17 02:49:23;;;;;;;2.00;1.80;;;10.30;1.40;;;11.66;100.00;96186.14;617129;222;32083;-76
2022/07/17 02:52:05;;;;;;;1.70;0.90;;;10.70;1.40;;;11.72;100.00;96182.55;645964;216;31505;-75
2022/07/17 02:54:47;;;;;;;1.50;1.40;;;10.60;1.40;;;11.58;100.00;96184.03;650885;216;31556;-75
2022/07/17 02:57:28;;;;;;;2.13;1.30;;;10.40;1.40;;;11.60;100.00;96185.86;624814;226;31926;-76
2022/07/17 03:00:11;;;;;;;2.90;1.50;;;10.40;1.40;;;11.60;100.00;96187.26;646571;212;42168;-75
2022/07/17 03:02:52;;;;;;;1.67;1.20;;;10.30;1.40;;;11.67;100.00;96188.95;648314;216;31545;-75
2022/07/17 03:05:40;;;;;;;2.03;1.40;;;10.30;1.40;;;11.53;100.00;96190.89;626460;222;43065;-77
2022/07/17 03:08:28;;;;;;;2.53;1.20;;;10.20;1.40;;;11.63;100.00;96192.64;647201;216;32251;-76
2022/07/17 03:11:09;;;;;;;1.12;1.10;;;10.20;1.40;;;11.44;100.00;96196.24;645122;216;31901;-75
2022/07/17 03:13:51;;;;;;;1.50;1.40;;;10.10;1.40;;;11.35;100.00;96191.59;651100;216;32093;-75
2022/07/17 03:16:33;;;;;;;1.40;0.90;;;9.90;1.40;;;11.16;100.00;96193.91;645715;216;31850;-76
2022/07/17 03:19:15;;;;;;;1.48;1.37;;;9.80;1.40;;;11.12;100.00;96190.30;650216;212;32111;-77
2022/07/17 03:21:56;;;;;;;1.37;0.90;;;9.70;1.40;;;11.08;100.00;96190.51;645848;212;31516;-75
2022/07/17 03:24:44;;;;;;;1.20;1.03;;;9.80;1.40;;;11.08;100.00;96184.53;653584;212;31519;-77
2022/07/17 03:27:32;;;;;;;1.37;1.27;;;9.90;1.40;;;11.05;100.00;96187.60;646158;216;42231;-75
2022/07/17 03:30:13;;;;;;;1.70;1.60;;;9.80;1.40;;;11.01;100.00;96185.59;654338;216;31569;-75
2022/07/17 03:32:55;;;;;;;1.23;1.00;;;9.80;1.40;;;11.03;100.00;96181.66;621047;222;42785;-76
2022/07/17 03:35:51;;;;;;;2.78;1.12;;;9.70;1.40;;;10.96;100.00;96185.56;644856;216;31527;-76
2022/07/17 03:38:33;;;;;;;3.47;1.40;;;9.70;1.40;;;10.95;100.00;96184.49;649753;216;42142;-76
2022/07/17 03:41:15;;;;;;;3.00;1.23;;;9.70;1.40;;;10.99;100.00;96185.83;650071;216;31640;-75
2022/07/17 03:43:59;;;;;;;1.45;1.23;;;9.80;1.40;;;11.00;100.00;96185.66;650915;216;31825;-75
2022/07/17 03:46:41;;;;;;;1.50;1.25;;;9.80;1.40;;;11.01;100.00;96182.55;646712;216;31542;-75
2022/07/17 03:49:28;;;;;;;1.20;1.00;;;9.80;1.40;;;10.99;100.00;96184.16;650166;216;31690;-75
2022/07/17 03:52:09;;;;;;;2.30;1.20;;;9.70;1.40;;;11.07;100.00;96180.09;649495;216;31655;-75
2022/07/17 03:54:51;;;;;;;1.50;1.10;;;9.80;1.40;;;11.07;100.00;96181.28;647161;216;31685;-76
2022/07/17 03:57:33;;;;;;;2.40;1.50;;;9.80;1.40;;;11.08;100.00;96182.36;650509;216;31765;-75
2022/07/17 04:00:15;;;;;;;2.00;0.90;;;9.80;1.40;;;11.08;100.00;96184.16;645940;212;31579;-77
2022/07/17 04:02:56;;;;;;;1.40;1.30;;;9.70;1.40;;;11.06;100.00;96181.89;620024;226;31989;-75
2022/07/17 04:05:41;;;;;;;1.30;1.12;;;9.70;1.40;;;11.18;100.00;96187.70;648916;216;31547;-76
2022/07/17 04:08:23;;;;;;;1.70;1.60;;;9.80;1.40;;;11.10;100.00;96188.26;644855;216;42156;-75
2022/07/17 04:11:13;;;;;;;1.10;1.00;;;9.70;1.40;;;11.05;100.00;96198.24;650747;216;33494;-77
2022/07/17 04:14:01;;;;;;;1.70;1.30;;;9.60;1.40;;;11.01;100.00;96204.53;649624;216;42784;-75
2022/07/17 04:16:43;;;;;;;1.77;1.48;;;9.60;1.40;;;11.05;100.00;96200.14;646670;216;31780;-76
2022/07/17 04:19:24;;;;;;;2.30;1.40;;;9.70;1.40;;;11.07;100.00;96198.49;651199;216;31908;-75
2022/07/17 04:22:06;;;;;;;2.08;1.37;;;9.70;1.40;;;11.17;100.00;96203.23;646790;216;31682;-75
2022/07/17 04:27:22;;;;;;;1.77;1.13;;;9.90;1.40;;;11.41;100.00;96205.03;618690;226;32043;-76
2022/07/17 04:30:04;;;;;;;1.70;1.30;;;10.00;1.40;;;11.39;100.00;96202.77;646837;216;31558;-75
2022/07/17 04:32:46;;;;;;;1.60;1.30;;;10.10;1.40;;;11.46;100.00;96205.67;650057;216;31690;-75
2022/07/17 04:35:54;;;;;;;1.40;1.30;;;10.10;1.40;;;11.49;100.00;96203.78;647006;212;32637;-75
2022/07/17 04:38:35;;;;;;;1.30;1.20;;;10.20;1.40;;;11.57;100.00;96204.80;646799;212;31852;-76
2022/07/17 04:41:23;;;;;;;1.20;1.00;;;10.30;1.40;;;11.59;100.00;96205.36;648870;216;31561;-77
2022/07/17 04:44:08;;;;;;;3.10;1.30;;;10.40;1.40;;;11.78;100.00;96206.59;652860;216;32151;-76
2022/07/17 04:46:51;;;;;;;1.50;1.37;;;10.60;1.40;;;11.90;100.00;96207.23;648915;216;31582;-75
2022/07/17 04:49:36;;;;;;;1.63;1.53;;;10.70;1.40;;;12.01;100.00;96198.64;650655;216;31644;-75
2022/07/17 04:52:18;;;;;;;2.20;1.20;;;10.80;1.40;;;12.25;100.00;96205.97;643102;216;31678;-75
2022/07/17 04:55:00;;;;;;;1.90;1.40;;;11.00;1.40;;;12.28;100.00;96205.88;650472;216;31564;-75
2022/07/17 04:57:41;;;;;;;1.40;1.30;;;11.00;1.40;;;12.40;100.00;96207.54;646174;212;31500;-75
2022/07/17 05:00:23;;;;;;;1.80;1.20;;;11.10;1.40;;;12.52;100.00;96208.89;645368;216;31574;-75
2022/07/17 05:03:07;;;;;;;1.67;1.30;;;11.20;1.40;;;12.67;100.00;96209.38;650914;216;32082;-77
2022/07/17 05:05:54;;;;;;;1.50;1.30;;;11.50;1.40;;;12.77;100.00;96203.58;625507;226;31861;-75
2022/07/17 05:08:42;;;;;;;1.70;1.47;;;11.70;1.40;;;12.93;100.00;96199.34;617067;226;32466;-77
2022/07/17 05:11:24;;;;;;;1.50;1.40;;;11.80;1.40;;;13.04;100.00;96200.84;646474;216;31546;-77
2022/07/17 05:14:11;;;;;;;2.60;1.10;;;11.80;1.40;;;13.14;100.00;96203.91;649724;216;34456;-76
2022/07/17 05:16:53;;;;;;;2.03;1.67;;;11.90;1.40;;;13.28;100.00;96202.94;648508;216;34570;-75
2022/07/17 05:19:35;;;;;;;2.70;1.70;;;12.00;1.40;;;13.44;100.00;96201.55;651952;216;31579;-75
2022/07/17 05:22:16;;;;;;;4.55;1.67;;;12.20;1.40;;;13.55;100.00;96198.80;646148;216;32044;-76
2022/07/17 05:24:58;;;;;;;1.48;1.37;;;12.30;1.40;;;13.76;100.00;96201.73;647839;216;31566;-76
2022/07/17 05:27:46;;;;;;;1.50;1.20;;;12.50;1.40;;;13.88;100.00;96198.47;634435;222;40531;-77
2022/07/17 05:30:33;;;;;;;2.00;1.65;;;12.70;1.40;;;14.08;100.00;96201.45;646635;216;31554;-76
2022/07/17 05:35:51;;;;;;;2.78;1.70;;;13.00;1.40;;;14.35;100.00;96202.74;647014;212;32495;-76
2022/07/17 05:38:33;;;;;;;2.10;1.60;;;13.10;1.40;;;14.49;100.00;96198.44;646303;216;31705;-76
2022/07/17 05:41:14;;;;;;;2.22;1.42;;;13.30;1.40;;;14.59;100.00;96199.85;649691;212;31779;-76
2022/07/17 05:43:59;;;;;;;3.42;1.70;;;13.50;1.40;;;14.80;100.00;96199.00;644813;216;31600;-75
2022/07/17 05:46:43;;;;;;;1.83;1.73;;;13.70;1.40;;;15.00;100.00;96199.11;647251;216;31542;-77
2022/07/17 05:49:30;;;;;;;2.60;2.12;;;13.80;1.40;;;15.07;100.00;96195.67;647507;212;31540;-76
2022/07/17 05:52:12;;;;;;;3.00;1.60;;;13.90;1.40;;;15.20;100.00;96197.77;650671;216;31542;-75
2022/07/17 05:57:28;;;;;;;1.73;1.37;;;14.20;1.40;;;15.53;100.00;96196.59;645678;216;31530;-76
2022/07/17 06:00:11;;;;;;;1.80;1.70;;;14.30;1.40;;;15.79;100.00;96201.25;649980;212;31546;-76
2022/07/17 06:02:55;;;;;;;3.60;1.75;;;14.50;1.40;;;15.92;100.00;96193.73;646137;216;31581;-75
2022/07/17 06:05:36;;;;;;;2.40;2.20;;;14.80;1.40;;;16.05;100.00;96194.70;649182;212;31507;-75
2022/07/17 06:08:18;;;;;;;1.90;1.40;;;14.80;1.40;;;16.21;100.00;96196.70;621037;226;32023;-76
2022/07/17 06:11:00;;;;;;;1.95;1.70;;;15.00;1.40;;;16.35;100.00;96190.77;647990;216;31540;-76
2022/07/17 06:13:42;;;;;;;1.80;1.70;;;15.10;1.40;;;16.51;100.00;96193.61;646070;216;31962;-76
2022/07/17 06:16:23;;;;;;;1.70;1.37;;;15.40;1.40;;;16.72;100.00;96197.78;649130;216;31532;-76
2022/07/17 06:19:11;;;;;;;2.58;2.37;;;15.50;1.40;;;16.88;100.00;96198.66;646141;216;31521;-78
2022/07/17 06:21:55;;;;;;;3.05;1.95;;;15.60;1.40;;;17.10;100.00;96196.36;646448;212;32200;-76
2022/07/17 06:24:36;;;;;;;1.98;1.80;;;15.80;1.40;;;17.23;100.00;96196.86;644644;216;31544;-76
2022/07/17 06:27:18;;;;;;;2.17;1.80;;;15.90;1.40;;;17.39;100.00;96197.67;645759;216;31621;-75
2022/07/17 06:30:00;;;;;;;1.65;1.50;;;16.10;1.40;;;17.53;100.00;96207.52;648062;216;31623;-77
2022/07/17 06:32:41;;;;;;;2.53;2.12;;;16.20;1.40;;;17.67;100.00;96207.73;616598;222;31901;-76
2022/07/17 06:35:54;;;;;;;3.65;2.15;;;16.60;1.40;;;17.96;100.00;96205.21;645581;216;31716;-76
2022/07/17 06:38:35;;;;;;;3.53;1.95;;;16.90;1.40;;;18.20;100.00;96199.63;631289;221;31758;-76
2022/07/17 06:43:52;;;;;;;2.00;1.53;;;17.00;1.40;;;18.41;100.00;96198.17;646341;216;31517;-76
2022/07/17 06:46:36;;;;;;;2.50;1.70;;;17.10;1.40;;;18.55;98.96;96201.52;618642;222;31938;-75
2022/07/17 06:49:24;;;;;;;2.40;2.20;;;17.30;1.40;;;18.59;100.00;96203.38;630913;222;31694;-76
2022/07/17 06:52:12;;;;;;;5.50;1.67;;;17.10;1.40;;;18.28;100.00;96205.25;642850;216;31568;-76
2022/07/17 06:54:53;;;;;;;2.90;1.70;;;16.60;1.40;;;17.88;100.00;96207.77;622826;226;31888;-76
2022/07/17 06:57:41;;;;;;;2.37;1.50;;;15.70;1.40;;;17.66;100.00;96211.97;646254;212;31535;-77
2022/07/17 07:00:23;;;;;;;2.28;1.70;;;15.20;1.40;;;17.60;100.00;96212.36;631718;221;31814;-76
2022/07/17 07:03:04;;;;;;;2.30;2.10;;;15.20;1.40;;;17.38;100.00;96212.09;644268;216;31596;-78
2022/07/17 07:05:47;;;;;;;2.10;1.50;;;15.00;1.40;;;17.24;100.00;96211.35;646502;212;42200;-77
2022/07/17 07:08:34;;;;;;;1.67;1.58;;;15.00;1.40;;;17.53;100.00;96214.14;647258;216;31533;-76
2022/07/17 07:11:16;;;;;;;2.15;1.83;;;15.20;1.40;;;17.62;100.00;96212.81;646570;212;31746;-76
2022/07/17 07:14:03;;;;;;;2.22;2.03;;;15.20;1.40;;;17.50;100.00;96215.24;645641;212;31761;-75
2022/07/17 07:16:51;;;;;;;2.17;1.75;;;15.50;1.40;;;17.72;100.00;96212.22;649026;216;31625;-75
2022/07/17 07:19:33;;;;;;;4.35;3.55;;;15.50;1.40;;;17.82;100.00;96215.38;643924;216;31565;-76
2022/07/17 07:22:20;;;;;;;1.90;1.40;;;15.50;1.40;;;18.07;100.00;96215.05;645049;212;31625;-76
2022/07/17 07:25:02;;;;;;;2.30;1.48;;;16.00;1.40;;;18.07;100.00;96215.00;647985;212;31523;-76
2022/07/17 07:27:44;;;;;;;4.75;1.85;;;16.20;1.40;;;18.20;100.00;96215.89;647901;212;31778;-76
2022/07/17 07:30:25;;;;;;;1.73;1.42;;;16.80;1.40;;;18.43;100.00;96212.93;652066;212;31651;-76
2022/07/17 07:35:51;;;;;;;1.65;1.50;;;18.70;1.40;;;19.05;100.00;96206.60;646614;212;31601;-76
2022/07/17 07:38:39;;;;;;;1.75;1.60;;;19.40;1.40;;;19.42;100.00;96207.17;618002;226;31867;-76
2022/07/17 07:41:20;;;;;;;1.60;1.37;;;19.60;1.40;;;19.67;98.47;96205.84;647139;216;32176;-75
2022/07/17 07:44:08;;;;;;;2.80;1.80;;;19.80;1.40;;;20.05;97.28;96205.45;646297;216;32451;-75
2022/07/17 07:46:56;;;;;;;2.30;1.80;;;20.00;1.40;;;20.66;91.58;96200.13;647787;216;31605;-75
2022/07/17 07:49:38;;;;;;;3.10;2.20;;;20.30;1.40;;;20.95;87.18;96203.13;646507;212;31552;-76
2022/07/17 07:52:19;;;;;;;2.65;1.50;;;20.70;1.40;;;21.29;85.92;96205.34;645419;216;31542;-76
2022/07/17 07:55:01;;;;;;;1.83;1.50;;;20.80;1.40;;;21.75;82.02;96205.03;644264;212;32196;-75
2022/07/17 07:57:46;;;;;;;0.95;0.80;;;21.20;1.40;;;21.85;81.51;96206.36;647643;213;31555;-75
2022/07/17 08:00:27;;;;;;;2.70;1.40;;;21.20;1.40;;;22.05;75.08;96203.59;648682;216;31842;-76
2022/07/17 08:03:18;;;;;;;2.50;1.30;;;21.30;1.40;;;22.10;76.69;96203.00;647640;216;31586;-77
2022/07/17 08:06:06;;;;;;;1.20;1.10;;;21.30;1.40;;;22.34;76.41;96205.72;620925;226;31912;-75
2022/07/17 08:08:53;;;;;;;2.13;1.40;;;21.50;1.40;;;22.66;74.82;96198.70;648237;216;31706;-76
2022/07/17 08:11:41;;;;;;;1.83;1.40;;;21.90;1.40;;;22.85;69.83;96197.06;648821;216;31592;-75
2022/07/17 08:14:23;;;;;;;1.35;1.25;;;22.10;1.40;;;23.43;67.53;96199.20;645990;212;31677;-75
2022/07/17 08:17:04;;;;;;;1.30;1.20;;;22.60;1.40;;;23.30;62.67;96204.07;647383;212;31688;-75
2022/07/17 08:19:46;;;;;;;2.50;1.30;;;22.50;1.40;;;23.45;66.01;96200.98;645756;216;31622;-75
2022/07/17 08:22:34;;;;;;;1.03;0.93;;;22.30;1.40;;;23.42;61.93;96202.92;646403;216;31651;-76
2022/07/17 08:25:16;;;;;;;1.40;1.10;;;22.50;1.40;;;23.52;62.48;96206.74;645564;216;42185;-77
2022/07/17 08:28:07;;;;;;;1.30;1.10;;;22.50;1.40;;;23.92;61.75;96205.78;647952;216;31832;-76
2022/07/17 08:30:48;;;;;;;1.67;1.20;;;22.90;1.40;;;24.23;61.16;96205.70;647882;216;31520;-75
2022/07/17 08:38:30;;;;;;;1.98;1.50;;;23.30;1.40;;;24.56;58.03;96213.02;651075;216;31877;-76
2022/07/17 08:41:16;;;;;;;1.50;1.20;;;23.50;1.40;;;24.77;58.82;96213.69;645370;216;31544;-76
2022/07/17 08:43:57;;;;;;;1.15;0.90;;;23.70;1.40;;;24.58;54.76;96218.95;648308;216;31567;-77
2022/07/17 08:46:42;;;;;;;1.50;1.08;;;23.60;1.40;;;24.70;58.57;96223.36;646785;216;42149;-76
2022/07/17 08:49:24;;;;;;;1.48;1.00;;;23.60;1.40;;;24.89;56.48;96219.42;645874;216;31503;-75
2022/07/17 08:52:06;;;;;;;1.10;1.00;;;23.80;1.40;;;25.17;55.55;96221.98;648104;212;42816;-75
2022/07/17 08:54:49;;;;;;;1.55;1.23;;;23.90;1.40;;;25.40;55.66;96216.72;645055;212;31498;-76
2022/07/17 08:57:38;;;;;;;2.15;1.52;;;24.20;1.40;;;25.34;52.28;96214.67;647264;216;32067;-76
2022/07/17 09:00:22;;;;;;;1.60;1.35;;;24.30;1.40;;;25.68;55.63;96211.02;651285;216;31506;-76
2022/07/17 09:03:04;;;;;;;1.23;1.12;;;24.40;1.40;;;25.68;56.11;96215.39;646662;216;31819;-77
2022/07/17 09:05:52;;;;;;;1.20;1.10;;;24.10;1.40;;;26.03;55.35;96216.48;647289;212;31638;-75
2022/07/17 09:08:39;;;;;;;3.40;1.37;;;24.50;1.40;;;26.13;55.13;96216.20;648563;213;31641;-76
2022/07/17 09:11:21;;;;;;;1.60;1.40;;;24.90;1.40;;;26.47;54.11;96215.18;618431;226;32047;-77
2022/07/17 09:14:03;;;;;;;0.98;0.95;;;25.10;1.40;;;26.78;53.03;96209.27;647216;216;31560;-77
2022/07/17 09:16:52;;;;;;;1.50;1.20;;;25.50;1.40;;;26.80;51.42;96206.14;647863;216;31522;-77
2022/07/17 09:19:41;;;;;;;2.20;1.30;;;25.70;1.40;;;27.36;51.14;96214.25;647087;212;31577;-76
2022/07/17 09:22:23;;;;;;;3.90;1.20;;;26.30;1.40;;;27.80;50.23;96211.41;646720;216;31683;-75
2022/07/17 09:25:07;;;;;;;1.37;1.27;;;26.70;1.40;;;27.34;48.13;96208.52;629621;222;31919;-76
2022/07/17 09:27:49;;;;;;;0.80;0.80;;;25.90;1.40;;;27.68;46.31;96207.06;649175;216;31534;-76
2022/07/17 09:30:32;;;;;;;0.85;0.85;;;27.30;1.40;;;29.57;44.90;96211.80;647679;212;31900;-76
2022/07/17 09:35:53;;;;;;;1.25;1.10;;;31.90;1.40;;;32.61;45.52;96202.86;645383;212;43156;-76
2022/07/17 09:38:36;;;;;;;1.90;0.93;;;33.00;1.40;;;32.88;43.23;96209.81;649752;216;31604;-77
2022/07/17 09:41:25;;;;;;;1.55;1.35;;;32.50;1.40;;;33.85;40.71;96214.52;646343;213;31484;-76
2022/07/17 09:44:09;;;;;;;1.58;1.20;;;32.70;1.40;;;33.65;38.20;96207.50;649937;216;31893;-75
2022/07/17 09:49:30;;;;;;;1.62;1.10;;;33.30;1.40;;;34.17;39.05;96208.23;647405;216;31596;-76
2022/07/17 09:52:14;;;;;;;3.80;1.20;;;32.90;1.40;;;35.98;38.13;96206.84;647783;216;31608;-74
2022/07/17 09:54:58;;;;;;;1.23;1.10;;;33.20;1.40;;;36.40;35.71;96201.69;617344;226;32574;-78
2022/07/17 09:57:42;;;;;;;1.70;1.00;;;33.00;1.40;;;36.84;34.96;96193.98;646082;213;31700;-76
2022/07/17 10:00:24;;;;;;;1.33;1.23;;;33.60;1.40;;;36.16;37.58;96200.09;624122;222;31906;-76
2022/07/17 10:03:06;;;;;;;1.10;1.00;;;33.20;1.40;;;37.17;32.72;96192.20;647986;212;31573;-77
2022/07/17 10:05:48;;;;;;;1.27;1.17;;;33.20;1.40;;;36.25;32.35;96198.69;630330;222;32210;-76
2022/07/17 10:08:29;;;;;;;1.60;1.20;;;33.00;1.40;;;37.40;30.42;96190.94;621694;226;42736;-77
2022/07/17 10:11:19;;;;;;;1.20;1.10;;;32.80;1.40;;;37.53;31.84;96189.26;646040;216;42098;-75
2022/07/17 10:14:05;;;;;;;1.50;1.40;;;34.00;1.40;;;38.48;32.90;96187.31;648759;216;31673;-77
2022/07/17 10:16:47;;;;;;;1.40;1.30;;;35.00;1.40;;;39.47;32.01;96190.42;618539;226;31971;-77
2022/07/17 10:19:29;;;;;;;1.23;1.13;;;35.30;1.40;;;36.01;32.03;96205.83;644768;212;31479;-76
2022/07/17 10:22:10;;;;;;;1.50;1.40;;;32.90;1.40;;;37.43;32.57;96203.31;645052;212;31516;-76
2022/07/17 10:24:54;;;;;;;1.40;1.30;;;33.70;1.40;;;37.44;30.90;96205.63;645589;212;31483;-76
2022/07/17 10:30:34;;;;;;;3.10;1.23;;;33.70;1.40;;;37.45;29.58;96204.35;646296;216;31558;-76
2022/07/17 10:35:53;;;;;;;1.60;1.50;;;33.80;1.40;;;38.45;29.34;96209.12;646759;212;31578;-77
2022/07/17 10:38:35;;;;;;;2.12;1.20;;;34.20;1.40;;;39.21;30.95;96200.86;648999;212;32024;-76
2022/07/17 10:41:17;;;;;;;1.30;1.10;;;34.70;1.40;;;38.55;29.06;96191.97;618890;222;32366;-75
2022/07/17 10:43:59;;;;;;;2.10;1.17;;;33.70;1.40;;;38.27;30.63;96198.35;648351;212;31598;-77
2022/07/17 10:46:41;;;;;;;1.90;1.20;;;34.10;1.40;;;38.61;30.22;96196.66;649895;216;31509;-76
2022/07/17 10:49:23;;;;;;;1.23;1.12;;;33.90;1.40;;;39.02;28.69;96188.86;622923;226;31929;-77
2022/07/17 10:52:11;;;;;;;1.33;1.20;;;34.30;1.40;;;39.03;27.54;96194.09;648794;216;32117;-76
2022/07/17 10:54:59;;;;;;;1.80;1.30;;;34.30;1.40;;;39.76;28.99;96196.70;632936;216;31754;-78
2022/07/17 10:57:47;;;;;;;1.10;1.00;;;34.20;1.40;;;39.86;26.92;96185.17;643968;216;31581;-74
2022/07/17 11:00:28;;;;;;;1.40;1.30;;;33.80;1.40;;;39.52;27.45;96183.25;650244;216;31512;-74
2022/07/17 11:03:12;;;;;;;1.03;1.03;;;32.80;1.40;;;37.90;29.52;96186.98;647373;216;31581;-75
2022/07/17 11:05:54;;;;;;;1.50;1.40;;;32.50;1.40;;;37.52;28.76;96179.84;646287;216;31551;-76
2022/07/17 11:08:36;;;;;;;1.60;1.40;;;32.90;1.40;;;39.15;28.60;96181.30;648156;212;32059;-77
2022/07/17 11:11:18;;;;;;;1.40;1.30;;;34.00;1.40;;;40.78;26.90;96173.90;645702;216;42851;-77
2022/07/17 11:14:24;;;;;;;1.17;1.08;;;34.10;1.40;;;39.26;26.21;96171.65;648288;216;32108;-75
2022/07/17 11:17:08;;;;;;;2.10;1.20;;;33.40;1.40;;;38.57;26.87;96169.01;646089;216;31526;-78
2022/07/17 11:19:50;;;;;;;1.90;1.30;;;33.30;1.40;;;39.76;27.07;96169.03;620867;223;31918;-77
2022/07/17 11:22:34;;;;;;;2.03;1.00;;;33.40;1.40;;;39.86;26.61;96158.79;621575;226;32013;-75
2022/07/17 11:25:21;;;;;;;2.45;1.30;;;33.00;1.40;;;39.75;26.30;96157.33;647770;212;31548;-77
2022/07/17 11:28:09;;;;;;;1.10;1.00;;;33.20;1.40;;;40.71;26.34;96154.17;648217;216;31957;-76
2022/07/17 11:30:51;;;;;;;1.87;1.20;;;33.90;1.40;;;41.46;26.74;96150.22;645459;216;31705;-75
2022/07/17 11:35:52;;;;;;;1.40;1.30;;;34.20;1.40;;;39.33;26.21;96150.22;643786;216;31570;-74
2022/07/17 11:41:11;;;;;;;2.30;1.17;;;32.60;1.40;;;40.54;25.02;96142.37;648637;216;31519;-76
2022/07/17 11:43:52;;;;;;;2.67;1.40;;;33.30;99.90;;;39.53;27.26;96147.56;645188;216;31538;-76
2022/07/17 11:46:37;;;;;;;3.00;1.25;;;33.40;99.90;;;40.59;24.29;96144.32;647989;216;31632;-75
2022/07/17 11:49:25;;;;;;;1.30;1.20;;;33.40;99.90;;;39.11;25.09;96141.81;645693;216;31539;-75
2022/07/17 11:52:11;;;;;;;1.20;1.10;;;33.30;99.90;;;38.91;24.59;96143.16;647887;216;31511;-76
2022/07/17 11:54:54;;;;;;;2.50;1.40;;;32.50;99.90;;;40.29;26.34;96144.94;647465;212;42714;-76
2022/07/17 11:57:35;;;;;;;1.10;1.00;;;33.30;49.90;;;41.27;24.74;96132.29;647787;216;31546;-76
2022/07/17 12:00:17;;;;;;;3.00;1.30;;;33.90;99.90;;;41.20;24.38;96130.63;619373;226;32146;-76
2022/07/17 12:02:59;;;;;;;1.40;1.20;;;33.60;99.90;;;38.18;26.47;96137.55;624342;226;32253;-76
2022/07/17 12:05:41;;;;;;;1.90;1.20;;;32.40;99.90;;;41.25;25.00;96135.84;648384;216;31727;-76
2022/07/17 12:08:23;;;;;;;1.77;1.23;;;32.90;1.40;;;39.74;26.64;96138.99;645535;212;31616;-75